sensor_id;sensor_type;location;lat;lon;timestamp;temperature;humidity
11559;DHT22;5835;42.930;25.178;2023-03-03T00:00:55;4.20;99.90
11559;DHT22;5835;42.930;25.178;2023-03-03T00:03:23;4.20;99.90
11559;DHT22;5835;42.930;25.178;2023-03-03T00:05:52;4.30;99.90
11559;DHT22;5835;42.930;25.178;2023-03-03T00:08:20;4.30;99.90
11559;DHT22;5835;42.930;25.178;2023-03-03T00:10:49;4.30;99.90
11559;DHT22;5835;42.930;25.178;2023-03-03T00:13:19;4.40;99.90
11559;DHT22;5835;42.930;25.178;2023-03-03T00:15:47;4.40;99.90
11559;DHT22;5835;42.930;25.178;2023-03-03T00:18:25;4.50;99.90
11559;DHT22;5835;42.930;25.178;2023-03-03T00:20:55;4.50;99.90
11559;DHT22;5835;42.930;25.178;2023-03-03T00:23:28;4.30;99.90
11559;DHT22;5835;42.930;25.178;2023-03-03T00:25:58;4.30;99.90
11559;DHT22;5835;42.930;25.178;2023-03-03T00:28:28;4.30;99.90
11559;DHT22;5835;42.930;25.178;2023-03-03T00:30:57;4.20;99.90
11559;DHT22;5835;42.930;25.178;2023-03-03T00:33:29;4.20;99.90
11559;DHT22;5835;42.930;25.178;2023-03-03T00:36:20;4.30;99.90
11559;DHT22;5835;42.930;25.178;2023-03-03T00:38:49;4.20;99.90
11559;DHT22;5835;42.930;25.178;2023-03-03T00:41:21;4.20;99.90
11559;DHT22;5835;42.930;25.178;2023-03-03T00:43:49;4.40;99.90
11559;DHT22;5835;42.930;25.178;2023-03-03T00:46:18;4.10;99.90
11559;DHT22;5835;42.930;25.178;2023-03-03T00:48:47;4.00;99.90
11559;DHT22;5835;42.930;25.178;2023-03-03T00:51:28;4.10;99.90
11559;DHT22;5835;42.930;25.178;2023-03-03T00:53:56;4.10;99.90
11559;DHT22;5835;42.930;25.178;2023-03-03T00:56:26;4.00;99.90
11559;DHT22;5835;42.930;25.178;2023-03-03T00:58:56;4.00;99.90
11559;DHT22;5835;42.930;25.178;2023-03-03T01:01:24;4.00;99.90
11559;DHT22;5835;42.930;25.178;2023-03-03T01:03:51;4.00;99.90
11559;DHT22;5835;42.930;25.178;2023-03-03T01:06:19;4.00;99.90
11559;DHT22;5835;42.930;25.178;2023-03-03T01:08:47;4.00;99.90
11559;DHT22;5835;42.930;25.178;2023-03-03T01:11:18;4.00;99.90
11559;DHT22;5835;42.930;25.178;2023-03-03T01:13:49;3.90;99.90
11559;DHT22;5835;42.930;25.178;2023-03-03T01:16:17;4.00;99.90
11559;DHT22;5835;42.930;25.178;2023-03-03T01:18:45;4.10;99.90
11559;DHT22;5835;42.930;25.178;2023-03-03T01:21:13;3.90;99.90
11559;DHT22;5835;42.930;25.178;2023-03-03T01:23:40;4.00;99.90
11559;DHT22;5835;42.930;25.178;2023-03-03T01:26:08;4.10;99.90
11559;DHT22;5835;42.930;25.178;2023-03-03T01:28:35;4.00;99.90
11559;DHT22;5835;42.930;25.178;2023-03-03T01:31:05;4.00;99.90
11559;DHT22;5835;42.930;25.178;2023-03-03T01:33:37;4.00;99.90
11559;DHT22;5835;42.930;25.178;2023-03-03T01:36:05;4.00;99.90
11559;DHT22;5835;42.930;25.178;2023-03-03T01:38:35;4.00;99.90
11559;DHT22;5835;42.930;25.178;2023-03-03T01:41:03;4.20;99.90
11559;DHT22;5835;42.930;25.178;2023-03-03T01:43:32;4.10;99.90
11559;DHT22;5835;42.930;25.178;2023-03-03T01:46:43;4.00;99.90
11559;DHT22;5835;42.930;25.178;2023-03-03T01:49:15;4.00;99.90
11559;DHT22;5835;42.930;25.178;2023-03-03T01:51:48;4.00;99.90
11559;DHT22;5835;42.930;25.178;2023-03-03T01:54:21;3.90;99.90
11559;DHT22;5835;42.930;25.178;2023-03-03T01:56:51;4.00;99.90
11559;DHT22;5835;42.930;25.178;2023-03-03T01:59:22;4.10;99.90
11559;DHT22;5835;42.930;25.178;2023-03-03T02:01:53;4.30;99.90
11559;DHT22;5835;42.930;25.178;2023-03-03T02:04:20;4.10;99.90
11559;DHT22;5835;42.930;25.178;2023-03-03T02:06:53;4.10;99.90
11559;DHT22;5835;42.930;25.178;2023-03-03T02:09:28;4.10;99.90
11559;DHT22;5835;42.930;25.178;2023-03-03T02:12:00;4.10;99.90
11559;DHT22;5835;42.930;25.178;2023-03-03T02:14:29;4.10;99.90
11559;DHT22;5835;42.930;25.178;2023-03-03T02:16:58;4.10;99.90
11559;DHT22;5835;42.930;25.178;2023-03-03T02:19:34;4.10;99.90
11559;DHT22;5835;42.930;25.178;2023-03-03T02:22:02;4.00;99.90
11559;DHT22;5835;42.930;25.178;2023-03-03T02:24:36;4.10;99.90
11559;DHT22;5835;42.930;25.178;2023-03-03T02:27:06;4.10;99.90
11559;DHT22;5835;42.930;25.178;2023-03-03T02:29:34;4.20;99.90
11559;DHT22;5835;42.930;25.178;2023-03-03T02:32:01;4.00;99.90
11559;DHT22;5835;42.930;25.178;2023-03-03T02:34:29;4.10;99.90
11559;DHT22;5835;42.930;25.178;2023-03-03T02:36:56;4.20;99.90
11559;DHT22;5835;42.930;25.178;2023-03-03T02:39:26;4.00;99.90
11559;DHT22;5835;42.930;25.178;2023-03-03T02:41:57;4.10;99.90
11559;DHT22;5835;42.930;25.178;2023-03-03T02:44:29;4.10;99.90
11559;DHT22;5835;42.930;25.178;2023-03-03T02:46:57;4.10;99.90
11559;DHT22;5835;42.930;25.178;2023-03-03T02:49:26;4.10;99.90
11559;DHT22;5835;42.930;25.178;2023-03-03T02:51:54;4.00;99.90
11559;DHT22;5835;42.930;25.178;2023-03-03T02:54:23;4.00;99.90
11559;DHT22;5835;42.930;25.178;2023-03-03T02:56:51;4.10;99.90
11559;DHT22;5835;42.930;25.178;2023-03-03T02:59:19;4.00;99.90
11559;DHT22;5835;42.930;25.178;2023-03-03T03:01:48;4.00;99.90
11559;DHT22;5835;42.930;25.178;2023-03-03T03:04:17;4.00;99.90
11559;DHT22;5835;42.930;25.178;2023-03-03T03:06:45;4.10;99.90
11559;DHT22;5835;42.930;25.178;2023-03-03T03:09:16;3.90;99.90
11559;DHT22;5835;42.930;25.178;2023-03-03T03:11:44;4.00;99.90
11559;DHT22;5835;42.930;25.178;2023-03-03T03:14:12;4.10;99.90
11559;DHT22;5835;42.930;25.178;2023-03-03T03:16:39;4.00;99.90
11559;DHT22;5835;42.930;25.178;2023-03-03T03:19:08;4.10;99.90
11559;DHT22;5835;42.930;25.178;2023-03-03T03:21:36;4.00;99.90
11559;DHT22;5835;42.930;25.178;2023-03-03T03:24:03;4.00;99.90
11559;DHT22;5835;42.930;25.178;2023-03-03T03:26:31;3.90;99.90
11559;DHT22;5835;42.930;25.178;2023-03-03T03:28:59;4.00;99.90
11559;DHT22;5835;42.930;25.178;2023-03-03T03:31:26;4.00;99.90
11559;DHT22;5835;42.930;25.178;2023-03-03T03:33:54;3.90;99.90
11559;DHT22;5835;42.930;25.178;2023-03-03T03:36:23;3.90;99.90
11559;DHT22;5835;42.930;25.178;2023-03-03T03:38:51;3.90;99.90
11559;DHT22;5835;42.930;25.178;2023-03-03T03:41:19;3.90;99.90
11559;DHT22;5835;42.930;25.178;2023-03-03T03:43:46;3.90;99.90
11559;DHT22;5835;42.930;25.178;2023-03-03T03:46:14;3.90;99.90
11559;DHT22;5835;42.930;25.178;2023-03-03T03:48:42;3.90;99.90
11559;DHT22;5835;42.930;25.178;2023-03-03T03:51:11;3.90;99.90
11559;DHT22;5835;42.930;25.178;2023-03-03T03:53:40;3.90;99.90
11559;DHT22;5835;42.930;25.178;2023-03-03T03:56:07;3.90;99.90
11559;DHT22;5835;42.930;25.178;2023-03-03T03:58:35;3.90;99.90
11559;DHT22;5835;42.930;25.178;2023-03-03T04:01:03;3.90;99.90
11559;DHT22;5835;42.930;25.178;2023-03-03T04:03:30;3.90;99.90
11559;DHT22;5835;42.930;25.178;2023-03-03T04:05:58;3.90;99.90
11559;DHT22;5835;42.930;25.178;2023-03-03T04:08:26;3.90;99.90
11559;DHT22;5835;42.930;25.178;2023-03-03T04:10:55;4.00;99.90
11559;DHT22;5835;42.930;25.178;2023-03-03T04:13:25;3.90;99.90
11559;DHT22;5835;42.930;25.178;2023-03-03T04:15:53;4.10;99.90
11559;DHT22;5835;42.930;25.178;2023-03-03T04:18:21;4.10;99.90
11559;DHT22;5835;42.930;25.178;2023-03-03T04:20:49;4.00;99.90
11559;DHT22;5835;42.930;25.178;2023-03-03T04:23:17;4.10;99.90
11559;DHT22;5835;42.930;25.178;2023-03-03T04:25:45;4.10;99.90
11559;DHT22;5835;42.930;25.178;2023-03-03T04:28:14;4.20;99.90
11559;DHT22;5835;42.930;25.178;2023-03-03T04:30:42;4.20;99.90
11559;DHT22;5835;42.930;25.178;2023-03-03T04:33:09;4.20;99.90
11559;DHT22;5835;42.930;25.178;2023-03-03T04:35:37;4.30;99.90
11559;DHT22;5835;42.930;25.178;2023-03-03T04:38:04;4.40;99.90
11559;DHT22;5835;42.930;25.178;2023-03-03T04:40:32;4.20;99.90
11559;DHT22;5835;42.930;25.178;2023-03-03T04:43:00;4.10;99.90
11559;DHT22;5835;42.930;25.178;2023-03-03T04:45:30;4.00;99.90
11559;DHT22;5835;42.930;25.178;2023-03-03T04:47:58;4.10;99.90
11559;DHT22;5835;42.930;25.178;2023-03-03T04:50:26;4.20;99.90
11559;DHT22;5835;42.930;25.178;2023-03-03T04:52:54;4.30;99.90
11559;DHT22;5835;42.930;25.178;2023-03-03T04:55:22;4.10;99.90
11559;DHT22;5835;42.930;25.178;2023-03-03T04:57:49;4.00;99.90
11559;DHT22;5835;42.930;25.178;2023-03-03T05:00:20;4.00;99.90
11559;DHT22;5835;42.930;25.178;2023-03-03T05:02:49;4.00;99.90
11559;DHT22;5835;42.930;25.178;2023-03-03T05:05:17;4.00;99.90
11559;DHT22;5835;42.930;25.178;2023-03-03T05:07:44;3.90;99.90
11559;DHT22;5835;42.930;25.178;2023-03-03T05:10:12;4.00;99.90
11559;DHT22;5835;42.930;25.178;2023-03-03T05:12:39;4.00;99.90
11559;DHT22;5835;42.930;25.178;2023-03-03T05:15:07;4.00;99.90
11559;DHT22;5835;42.930;25.178;2023-03-03T05:17:35;3.90;99.90
11559;DHT22;5835;42.930;25.178;2023-03-03T05:20:05;3.90;99.90
11559;DHT22;5835;42.930;25.178;2023-03-03T05:22:33;3.90;99.90
11559;DHT22;5835;42.930;25.178;2023-03-03T05:25:05;3.90;99.90
11559;DHT22;5835;42.930;25.178;2023-03-03T05:27:32;3.90;99.90
11559;DHT22;5835;42.930;25.178;2023-03-03T05:30:04;3.90;99.90
11559;DHT22;5835;42.930;25.178;2023-03-03T05:32:33;3.90;99.90
11559;DHT22;5835;42.930;25.178;2023-03-03T05:35:00;3.90;99.90
11559;DHT22;5835;42.930;25.178;2023-03-03T05:37:29;3.90;99.90
11559;DHT22;5835;42.930;25.178;2023-03-03T05:39:57;3.90;99.90
11559;DHT22;5835;42.930;25.178;2023-03-03T05:42:24;4.00;99.90
11559;DHT22;5835;42.930;25.178;2023-03-03T05:44:54;4.00;99.90
11559;DHT22;5835;42.930;25.178;2023-03-03T05:47:25;4.10;99.90
11559;DHT22;5835;42.930;25.178;2023-03-03T05:49:52;4.00;99.90
11559;DHT22;5835;42.930;25.178;2023-03-03T05:52:20;4.00;99.90
11559;DHT22;5835;42.930;25.178;2023-03-03T05:54:50;4.00;99.90
11559;DHT22;5835;42.930;25.178;2023-03-03T05:57:19;4.00;99.90
11559;DHT22;5835;42.930;25.178;2023-03-03T05:59:47;4.10;99.90
11559;DHT22;5835;42.930;25.178;2023-03-03T06:02:15;4.00;99.90
11559;DHT22;5835;42.930;25.178;2023-03-03T06:04:42;4.00;99.90
11559;DHT22;5835;42.930;25.178;2023-03-03T06:07:11;4.10;99.90
11559;DHT22;5835;42.930;25.178;2023-03-03T06:09:38;4.10;99.90
11559;DHT22;5835;42.930;25.178;2023-03-03T06:12:07;4.10;99.90
11559;DHT22;5835;42.930;25.178;2023-03-03T06:14:35;4.20;99.90
11559;DHT22;5835;42.930;25.178;2023-03-03T06:17:04;4.10;99.90
11559;DHT22;5835;42.930;25.178;2023-03-03T06:19:32;4.10;99.90
11559;DHT22;5835;42.930;25.178;2023-03-03T06:22:00;4.10;99.90
11559;DHT22;5835;42.930;25.178;2023-03-03T06:24:27;4.20;99.90
11559;DHT22;5835;42.930;25.178;2023-03-03T06:26:56;4.20;99.90
11559;DHT22;5835;42.930;25.178;2023-03-03T06:29:25;4.10;99.90
11559;DHT22;5835;42.930;25.178;2023-03-03T06:31:53;4.10;99.90
11559;DHT22;5835;42.930;25.178;2023-03-03T06:34:20;4.20;99.90
11559;DHT22;5835;42.930;25.178;2023-03-03T06:36:48;4.00;99.90
11559;DHT22;5835;42.930;25.178;2023-03-03T06:39:15;4.10;99.90
11559;DHT22;5835;42.930;25.178;2023-03-03T06:41:43;4.20;99.90
11559;DHT22;5835;42.930;25.178;2023-03-03T06:44:10;4.10;99.90
11559;DHT22;5835;42.930;25.178;2023-03-03T06:46:39;4.10;99.90
11559;DHT22;5835;42.930;25.178;2023-03-03T06:49:07;4.20;99.90
11559;DHT22;5835;42.930;25.178;2023-03-03T06:51:38;4.10;99.90
11559;DHT22;5835;42.930;25.178;2023-03-03T06:54:12;4.20;99.90
11559;DHT22;5835;42.930;25.178;2023-03-03T06:56:40;4.30;99.90
11559;DHT22;5835;42.930;25.178;2023-03-03T06:59:11;4.30;99.90
11559;DHT22;5835;42.930;25.178;2023-03-03T07:01:41;4.20;99.90
11559;DHT22;5835;42.930;25.178;2023-03-03T07:04:20;4.20;99.90
11559;DHT22;5835;42.930;25.178;2023-03-03T07:06:50;4.20;99.90
11559;DHT22;5835;42.930;25.178;2023-03-03T07:09:21;4.20;99.90
11559;DHT22;5835;42.930;25.178;2023-03-03T07:11:50;4.30;99.90
11559;DHT22;5835;42.930;25.178;2023-03-03T07:14:19;4.50;99.90
11559;DHT22;5835;42.930;25.178;2023-03-03T07:16:51;4.40;99.90
11559;DHT22;5835;42.930;25.178;2023-03-03T07:19:29;4.50;99.90
11559;DHT22;5835;42.930;25.178;2023-03-03T07:22:00;4.50;99.90
11559;DHT22;5835;42.930;25.178;2023-03-03T07:24:29;4.50;99.90
11559;DHT22;5835;42.930;25.178;2023-03-03T07:26:59;4.70;99.90
11559;DHT22;5835;42.930;25.178;2023-03-03T07:29:29;4.70;99.90
11559;DHT22;5835;42.930;25.178;2023-03-03T07:32:00;4.50;99.90
11559;DHT22;5835;42.930;25.178;2023-03-03T07:34:35;4.50;99.90
11559;DHT22;5835;42.930;25.178;2023-03-03T07:37:10;4.50;99.90
11559;DHT22;5835;42.930;25.178;2023-03-03T07:39:43;4.60;99.90
11559;DHT22;5835;42.930;25.178;2023-03-03T07:42:19;4.60;99.90
11559;DHT22;5835;42.930;25.178;2023-03-03T07:44:50;4.60;99.90
11559;DHT22;5835;42.930;25.178;2023-03-03T07:47:23;4.50;99.90
11559;DHT22;5835;42.930;25.178;2023-03-03T07:49:52;4.50;99.90
11559;DHT22;5835;42.930;25.178;2023-03-03T07:52:32;4.70;99.90
11559;DHT22;5835;42.930;25.178;2023-03-03T07:55:25;4.60;99.90
11559;DHT22;5835;42.930;25.178;2023-03-03T07:57:54;4.60;99.90
11559;DHT22;5835;42.930;25.178;2023-03-03T08:03:42;4.90;99.90
11559;DHT22;5835;42.930;25.178;2023-03-03T08:06:36;4.90;99.90
11559;DHT22;5835;42.930;25.178;2023-03-03T08:09:33;4.70;99.90
11559;DHT22;5835;42.930;25.178;2023-03-03T08:12:15;4.70;99.90
11559;DHT22;5835;42.930;25.178;2023-03-03T08:14:44;5.00;99.90
11559;DHT22;5835;42.930;25.178;2023-03-03T08:17:16;5.00;99.90
11559;DHT22;5835;42.930;25.178;2023-03-03T08:19:47;5.00;99.90
11559;DHT22;5835;42.930;25.178;2023-03-03T08:22:17;4.80;99.90
11559;DHT22;5835;42.930;25.178;2023-03-03T08:24:45;4.90;99.90
11559;DHT22;5835;42.930;25.178;2023-03-03T08:27:16;5.30;99.90
11559;DHT22;5835;42.930;25.178;2023-03-03T08:29:43;5.20;99.90
11559;DHT22;5835;42.930;25.178;2023-03-03T08:32:11;5.20;99.90
11559;DHT22;5835;42.930;25.178;2023-03-03T08:34:41;5.20;99.90
11559;DHT22;5835;42.930;25.178;2023-03-03T08:37:10;5.30;99.90
11559;DHT22;5835;42.930;25.178;2023-03-03T08:39:39;5.20;99.90
11559;DHT22;5835;42.930;25.178;2023-03-03T08:42:12;5.30;99.90
11559;DHT22;5835;42.930;25.178;2023-03-03T08:44:39;5.30;99.90
11559;DHT22;5835;42.930;25.178;2023-03-03T08:47:07;5.40;99.90
11559;DHT22;5835;42.930;25.178;2023-03-03T08:49:34;5.70;99.90
11559;DHT22;5835;42.930;25.178;2023-03-03T08:52:03;5.70;99.90
11559;DHT22;5835;42.930;25.178;2023-03-03T08:54:31;6.10;99.90
11559;DHT22;5835;42.930;25.178;2023-03-03T08:56:59;6.50;99.90
11559;DHT22;5835;42.930;25.178;2023-03-03T08:59:27;6.40;99.90
11559;DHT22;5835;42.930;25.178;2023-03-03T09:01:54;6.10;99.90
11559;DHT22;5835;42.930;25.178;2023-03-03T09:04:21;6.10;99.90
11559;DHT22;5835;42.930;25.178;2023-03-03T09:06:52;6.10;99.90
11559;DHT22;5835;42.930;25.178;2023-03-03T09:09:19;6.10;99.90
11559;DHT22;5835;42.930;25.178;2023-03-03T09:11:48;6.20;99.90
11559;DHT22;5835;42.930;25.178;2023-03-03T09:14:17;6.00;99.90
11559;DHT22;5835;42.930;25.178;2023-03-03T09:16:49;5.90;99.90
11559;DHT22;5835;42.930;25.178;2023-03-03T09:19:22;6.30;99.90
11559;DHT22;5835;42.930;25.178;2023-03-03T09:21:51;6.10;99.90
11559;DHT22;5835;42.930;25.178;2023-03-03T09:24:24;6.20;99.90
11559;DHT22;5835;42.930;25.178;2023-03-03T09:26:57;6.30;99.90
11559;DHT22;5835;42.930;25.178;2023-03-03T09:29:27;6.70;99.90
11559;DHT22;5835;42.930;25.178;2023-03-03T09:31:56;6.90;99.90
11559;DHT22;5835;42.930;25.178;2023-03-03T09:34:33;6.80;99.90
11559;DHT22;5835;42.930;25.178;2023-03-03T09:37:18;6.30;99.90
11559;DHT22;5835;42.930;25.178;2023-03-03T09:39:49;6.20;99.90
11559;DHT22;5835;42.930;25.178;2023-03-03T09:42:46;6.30;99.90
11559;DHT22;5835;42.930;25.178;2023-03-03T09:45:29;6.30;99.90
11559;DHT22;5835;42.930;25.178;2023-03-03T09:48:20;6.50;99.90
11559;DHT22;5835;42.930;25.178;2023-03-03T09:51:06;6.20;99.90
11559;DHT22;5835;42.930;25.178;2023-03-03T09:53:48;6.30;99.90
11559;DHT22;5835;42.930;25.178;2023-03-03T09:56:23;6.30;99.90
11559;DHT22;5835;42.930;25.178;2023-03-03T09:59:05;6.30;99.90
11559;DHT22;5835;42.930;25.178;2023-03-03T10:01:49;6.50;99.90
11559;DHT22;5835;42.930;25.178;2023-03-03T10:04:39;6.70;99.90
11559;DHT22;5835;42.930;25.178;2023-03-03T10:07:22;6.70;99.90
11559;DHT22;5835;42.930;25.178;2023-03-03T10:10:24;6.50;99.90
11559;DHT22;5835;42.930;25.178;2023-03-03T10:13:07;6.40;99.90
11559;DHT22;5835;42.930;25.178;2023-03-03T10:15:47;6.40;99.90
11559;DHT22;5835;42.930;25.178;2023-03-03T10:18:28;6.30;99.90
11559;DHT22;5835;42.930;25.178;2023-03-03T10:21:08;6.40;99.90
11559;DHT22;5835;42.930;25.178;2023-03-03T10:23:51;6.30;99.90
11559;DHT22;5835;42.930;25.178;2023-03-03T10:26:49;6.40;99.90
11559;DHT22;5835;42.930;25.178;2023-03-03T10:29:49;6.40;99.90
11559;DHT22;5835;42.930;25.178;2023-03-03T10:32:38;6.50;99.90
11559;DHT22;5835;42.930;25.178;2023-03-03T10:38:26;6.40;99.90
11559;DHT22;5835;42.930;25.178;2023-03-03T10:41:01;6.20;99.90
11559;DHT22;5835;42.930;25.178;2023-03-03T10:43:47;6.00;99.90
11559;DHT22;5835;42.930;25.178;2023-03-03T10:46:45;6.00;99.90
11559;DHT22;5835;42.930;25.178;2023-03-03T10:49:29;6.10;99.90
11559;DHT22;5835;42.930;25.178;2023-03-03T10:52:12;6.20;99.90
11559;DHT22;5835;42.930;25.178;2023-03-03T10:55:06;6.20;99.90
11559;DHT22;5835;42.930;25.178;2023-03-03T10:57:40;6.20;99.90
11559;DHT22;5835;42.930;25.178;2023-03-03T11:00:21;6.20;99.90
11559;DHT22;5835;42.930;25.178;2023-03-03T11:03:25;6.10;99.90
11559;DHT22;5835;42.930;25.178;2023-03-03T11:05:59;6.20;99.90
11559;DHT22;5835;42.930;25.178;2023-03-03T11:08:31;6.30;99.90
11559;DHT22;5835;42.930;25.178;2023-03-03T11:11:09;6.30;99.90
11559;DHT22;5835;42.930;25.178;2023-03-03T11:13:45;6.20;99.90
11559;DHT22;5835;42.930;25.178;2023-03-03T11:16:33;6.10;99.90
11559;DHT22;5835;42.930;25.178;2023-03-03T11:19:16;6.30;99.90
11559;DHT22;5835;42.930;25.178;2023-03-03T11:21:58;6.40;99.90
11559;DHT22;5835;42.930;25.178;2023-03-03T11:24:44;6.50;99.90
11559;DHT22;5835;42.930;25.178;2023-03-03T11:27:34;6.40;99.90
11559;DHT22;5835;42.930;25.178;2023-03-03T11:30:16;6.30;99.90
11559;DHT22;5835;42.930;25.178;2023-03-03T11:32:50;6.40;99.90
11559;DHT22;5835;42.930;25.178;2023-03-03T11:35:25;6.50;99.90
11559;DHT22;5835;42.930;25.178;2023-03-03T11:41:06;6.70;99.90
11559;DHT22;5835;42.930;25.178;2023-03-03T11:43:39;6.50;99.10
11559;DHT22;5835;42.930;25.178;2023-03-03T11:46:13;6.60;91.90
11559;DHT22;5835;42.930;25.178;2023-03-03T11:48:46;6.50;95.00
11559;DHT22;5835;42.930;25.178;2023-03-03T11:51:26;6.60;91.90
11559;DHT22;5835;42.930;25.178;2023-03-03T11:54:06;6.80;80.10
11559;DHT22;5835;42.930;25.178;2023-03-03T11:56:38;6.80;69.10
11559;DHT22;5835;42.930;25.178;2023-03-03T11:59:19;6.70;88.40
11559;DHT22;5835;42.930;25.178;2023-03-03T12:01:53;6.70;91.10
11559;DHT22;5835;42.930;25.178;2023-03-03T12:04:28;6.70;75.00
11559;DHT22;5835;42.930;25.178;2023-03-03T12:07:09;6.80;72.80
11559;DHT22;5835;42.930;25.178;2023-03-03T12:09:45;6.70;53.40
11559;DHT22;5835;42.930;25.178;2023-03-03T12:12:20;6.70;75.20
11559;DHT22;5835;42.930;25.178;2023-03-03T12:15:09;6.70;90.70
11559;DHT22;5835;42.930;25.178;2023-03-03T12:18:10;6.50;92.10
11559;DHT22;5835;42.930;25.178;2023-03-03T12:20:47;6.70;96.00
11559;DHT22;5835;42.930;25.178;2023-03-03T12:23:38;6.50;94.00
11559;DHT22;5835;42.930;25.178;2023-03-03T12:26:13;6.60;99.90
11559;DHT22;5835;42.930;25.178;2023-03-03T12:28:49;6.40;99.90
11559;DHT22;5835;42.930;25.178;2023-03-03T12:31:28;6.40;99.90
11559;DHT22;5835;42.930;25.178;2023-03-03T12:34:02;6.40;99.90
11559;DHT22;5835;42.930;25.178;2023-03-03T12:37:04;6.60;99.90
11559;DHT22;5835;42.930;25.178;2023-03-03T12:39:43;6.40;99.90
11559;DHT22;5835;42.930;25.178;2023-03-03T12:42:23;6.50;99.90
11559;DHT22;5835;42.930;25.178;2023-03-03T12:44:59;6.60;99.90
11559;DHT22;5835;42.930;25.178;2023-03-03T12:47:37;6.30;99.90
11559;DHT22;5835;42.930;25.178;2023-03-03T12:50:26;6.40;99.90
11559;DHT22;5835;42.930;25.178;2023-03-03T12:53:01;6.40;99.90
11559;DHT22;5835;42.930;25.178;2023-03-03T12:55:37;6.50;99.90
11559;DHT22;5835;42.930;25.178;2023-03-03T12:58:16;6.60;99.90
11559;DHT22;5835;42.930;25.178;2023-03-03T13:00:53;6.60;99.90
11559;DHT22;5835;42.930;25.178;2023-03-03T13:03:35;6.50;99.90
11559;DHT22;5835;42.930;25.178;2023-03-03T13:06:10;6.70;99.90
11559;DHT22;5835;42.930;25.178;2023-03-03T13:08:54;6.50;99.90
11559;DHT22;5835;42.930;25.178;2023-03-03T13:11:35;6.20;99.90
11559;DHT22;5835;42.930;25.178;2023-03-03T13:14:13;6.30;99.90
11559;DHT22;5835;42.930;25.178;2023-03-03T13:16:47;6.30;99.90
11559;DHT22;5835;42.930;25.178;2023-03-03T13:19:20;6.10;99.90
11559;DHT22;5835;42.930;25.178;2023-03-03T13:21:59;6.30;99.90
11559;DHT22;5835;42.930;25.178;2023-03-03T13:24:34;6.30;99.90
11559;DHT22;5835;42.930;25.178;2023-03-03T13:27:06;6.20;99.90
11559;DHT22;5835;42.930;25.178;2023-03-03T13:29:40;6.30;99.90
11559;DHT22;5835;42.930;25.178;2023-03-03T13:32:12;6.10;99.90
11559;DHT22;5835;42.930;25.178;2023-03-03T13:34:48;6.10;99.90
11559;DHT22;5835;42.930;25.178;2023-03-03T13:37:21;6.10;99.90
11559;DHT22;5835;42.930;25.178;2023-03-03T13:39:56;5.90;99.90
11559;DHT22;5835;42.930;25.178;2023-03-03T13:42:31;5.90;99.90
11559;DHT22;5835;42.930;25.178;2023-03-03T13:45:05;5.70;99.90
11559;DHT22;5835;42.930;25.178;2023-03-03T13:47:45;5.70;99.90
11559;DHT22;5835;42.930;25.178;2023-03-03T13:50:22;5.60;99.90
11559;DHT22;5835;42.930;25.178;2023-03-03T13:53:24;5.80;99.90
11559;DHT22;5835;42.930;25.178;2023-03-03T13:56:01;5.70;99.90
11559;DHT22;5835;42.930;25.178;2023-03-03T13:58:33;5.90;99.90
11559;DHT22;5835;42.930;25.178;2023-03-03T14:01:11;5.70;99.90
11559;DHT22;5835;42.930;25.178;2023-03-03T14:06:34;5.80;99.90
11559;DHT22;5835;42.930;25.178;2023-03-03T14:09:29;5.80;99.90
11559;DHT22;5835;42.930;25.178;2023-03-03T14:12:11;5.90;99.90
11559;DHT22;5835;42.930;25.178;2023-03-03T14:14:48;6.00;99.90
11559;DHT22;5835;42.930;25.178;2023-03-03T14:17:28;5.90;99.90
11559;DHT22;5835;42.930;25.178;2023-03-03T14:20:02;5.90;99.90
11559;DHT22;5835;42.930;25.178;2023-03-03T14:22:40;5.80;99.90
11559;DHT22;5835;42.930;25.178;2023-03-03T14:25:12;5.80;99.90
11559;DHT22;5835;42.930;25.178;2023-03-03T14:27:58;5.70;99.90
11559;DHT22;5835;42.930;25.178;2023-03-03T14:30:33;5.60;99.90
11559;DHT22;5835;42.930;25.178;2023-03-03T14:33:22;5.70;99.90
11559;DHT22;5835;42.930;25.178;2023-03-03T14:36:04;5.70;99.90
11559;DHT22;5835;42.930;25.178;2023-03-03T14:38:45;5.70;99.90
11559;DHT22;5835;42.930;25.178;2023-03-03T14:41:16;5.70;99.90
11559;DHT22;5835;42.930;25.178;2023-03-03T14:43:45;5.70;99.90
11559;DHT22;5835;42.930;25.178;2023-03-03T14:46:35;5.90;99.90
11559;DHT22;5835;42.930;25.178;2023-03-03T14:49:11;5.90;99.90
11559;DHT22;5835;42.930;25.178;2023-03-03T14:51:42;5.80;99.90
11559;DHT22;5835;42.930;25.178;2023-03-03T14:54:25;5.80;99.90
11559;DHT22;5835;42.930;25.178;2023-03-03T14:57:05;5.80;99.90
11559;DHT22;5835;42.930;25.178;2023-03-03T14:59:36;5.80;99.90
11559;DHT22;5835;42.930;25.178;2023-03-03T15:02:26;5.80;99.90
11559;DHT22;5835;42.930;25.178;2023-03-03T15:05:18;5.90;99.90
11559;DHT22;5835;42.930;25.178;2023-03-03T15:07:48;5.90;99.90
11559;DHT22;5835;42.930;25.178;2023-03-03T15:10:36;6.10;99.90
11559;DHT22;5835;42.930;25.178;2023-03-03T15:13:24;6.00;99.90
11559;DHT22;5835;42.930;25.178;2023-03-03T15:16:04;6.00;99.90
11559;DHT22;5835;42.930;25.178;2023-03-03T15:18:54;6.00;99.90
11559;DHT22;5835;42.930;25.178;2023-03-03T15:21:29;6.10;99.90
11559;DHT22;5835;42.930;25.178;2023-03-03T15:24:03;5.90;99.90
11559;DHT22;5835;42.930;25.178;2023-03-03T15:26:43;5.80;99.90
11559;DHT22;5835;42.930;25.178;2023-03-03T15:29:19;5.90;99.90
11559;DHT22;5835;42.930;25.178;2023-03-03T15:31:53;5.90;99.90
11559;DHT22;5835;42.930;25.178;2023-03-03T15:34:30;5.80;99.90
11559;DHT22;5835;42.930;25.178;2023-03-03T15:37:08;5.90;99.90
11559;DHT22;5835;42.930;25.178;2023-03-03T15:39:41;5.80;99.90
11559;DHT22;5835;42.930;25.178;2023-03-03T15:42:14;5.80;99.90
11559;DHT22;5835;42.930;25.178;2023-03-03T15:44:54;5.80;99.90
11559;DHT22;5835;42.930;25.178;2023-03-03T15:47:37;5.80;99.90
11559;DHT22;5835;42.930;25.178;2023-03-03T15:50:20;5.80;99.90
11559;DHT22;5835;42.930;25.178;2023-03-03T15:53:04;5.80;99.90
11559;DHT22;5835;42.930;25.178;2023-03-03T15:55:46;5.90;99.90
11559;DHT22;5835;42.930;25.178;2023-03-03T15:58:41;6.00;99.90
11559;DHT22;5835;42.930;25.178;2023-03-03T16:01:16;5.90;99.90
11559;DHT22;5835;42.930;25.178;2023-03-03T16:03:51;6.00;99.90
11559;DHT22;5835;42.930;25.178;2023-03-03T16:06:29;6.00;99.90
11559;DHT22;5835;42.930;25.178;2023-03-03T16:09:10;5.90;99.90
11559;DHT22;5835;42.930;25.178;2023-03-03T16:11:47;6.00;99.90
11559;DHT22;5835;42.930;25.178;2023-03-03T16:14:33;6.10;99.90
11559;DHT22;5835;42.930;25.178;2023-03-03T16:17:15;6.20;99.90
11559;DHT22;5835;42.930;25.178;2023-03-03T16:19:50;6.20;99.90
11559;DHT22;5835;42.930;25.178;2023-03-03T16:22:36;6.30;99.90
11559;DHT22;5835;42.930;25.178;2023-03-03T16:28:05;6.10;99.90
11559;DHT22;5835;42.930;25.178;2023-03-03T16:30:38;6.20;99.90
11559;DHT22;5835;42.930;25.178;2023-03-03T16:33:18;6.10;99.90
11559;DHT22;5835;42.930;25.178;2023-03-03T16:35:53;6.00;99.90
11559;DHT22;5835;42.930;25.178;2023-03-03T16:38:25;6.00;99.90
11559;DHT22;5835;42.930;25.178;2023-03-03T16:40:58;6.00;99.90
11559;DHT22;5835;42.930;25.178;2023-03-03T16:43:31;6.20;99.90